createdAt,value
2023-04-18T00:00:15.081Z,80188.28
2023-04-18T00:01:56.472Z,80199.06
2023-04-18T00:03:38.075Z,80196.59
2023-04-18T00:05:19.633Z,80195.00
2023-04-18T00:07:01.094Z,80188.41
2023-04-18T00:08:42.400Z,80188.53
2023-04-18T00:10:23.674Z,80186.25
2023-04-18T00:12:05.017Z,80185.53
2023-04-18T00:13:46.310Z,80182.88
2023-04-18T00:15:27.620Z,80187.25
2023-04-18T00:17:09.046Z,80182.59
2023-04-18T00:18:50.392Z,80179.97
2023-04-18T00:20:31.688Z,80177.31
2023-04-18T00:22:13.023Z,80172.19
2023-04-18T00:23:54.286Z,80163.69
2023-04-18T00:25:35.617Z,80173.22
2023-04-18T00:27:16.890Z,80172.41
2023-04-18T00:28:58.177Z,80164.53
2023-04-18T00:30:39.506Z,80166.66
2023-04-18T00:32:20.866Z,80166.94
2023-04-18T00:34:02.170Z,80169.78
2023-04-18T00:35:43.471Z,80162.63
2023-04-18T00:37:24.789Z,80162.28
2023-04-18T00:39:06.065Z,80163.59
2023-04-18T00:40:47.383Z,80166.22
2023-04-18T00:42:28.676Z,80162.28
2023-04-18T00:44:09.985Z,80159.38
2023-04-18T00:45:51.321Z,80156.94
2023-04-18T00:47:32.685Z,80157.47
2023-04-18T00:49:14.060Z,80167.16
2023-04-18T00:50:55.348Z,80160.25
2023-04-18T00:52:36.625Z,80153.94
2023-04-18T00:54:17.916Z,80155.06
2023-04-18T00:55:59.202Z,80149.06
2023-04-18T00:57:40.544Z,80147.16
2023-04-18T00:59:21.843Z,80148.34
2023-04-18T01:01:03.221Z,80157.44
2023-04-18T01:02:44.724Z,80154.91
2023-04-18T01:04:26.351Z,80148.06
2023-04-18T01:06:07.688Z,80145.09
2023-04-18T01:07:49.004Z,80149.16
2023-04-18T01:09:30.400Z,80144.97
2023-04-18T01:11:11.700Z,80147.25
2023-04-18T01:12:52.998Z,80158.63
2023-04-18T01:14:34.321Z,80166.25
2023-04-18T01:16:15.664Z,80167.44
2023-04-18T01:17:56.980Z,80161.25
2023-04-18T01:19:38.336Z,80156.31
2023-04-18T01:21:19.626Z,80163.00
2023-04-18T01:23:00.929Z,80161.44
2023-04-18T01:24:42.227Z,80165.22
2023-04-18T01:26:23.500Z,80163.09
2023-04-18T01:28:04.862Z,80159.84
2023-04-18T01:29:46.194Z,80159.13
2023-04-18T01:31:27.543Z,80158.28
2023-04-18T01:33:08.863Z,80149.94
2023-04-18T01:34:50.177Z,80151.16
2023-04-18T01:36:31.520Z,80156.13
2023-04-18T01:38:12.817Z,80156.75
2023-04-18T01:39:54.211Z,80151.31
2023-04-18T01:41:35.546Z,80153.28
2023-04-18T01:43:16.819Z,80144.81
2023-04-18T01:44:58.130Z,80147.38
2023-04-18T01:46:39.437Z,80139.03
2023-04-18T01:48:20.758Z,80136.34
2023-04-18T01:50:02.057Z,80146.75
2023-04-18T01:51:43.361Z,80140.59
2023-04-18T01:53:24.665Z,80140.69
2023-04-18T01:55:05.946Z,80142.13
2023-04-18T01:56:47.248Z,80141.19
2023-04-18T01:58:28.523Z,80138.25
2023-04-18T02:00:09.838Z,80135.88
2023-04-18T02:01:51.187Z,80136.50
2023-04-18T02:03:32.709Z,80132.69
2023-04-18T02:05:14.140Z,80142.25
2023-04-18T02:06:55.453Z,80136.22
2023-04-18T02:08:36.753Z,80137.03
2023-04-18T02:10:18.088Z,80145.00
2023-04-18T02:11:59.437Z,80141.34
2023-04-18T02:13:40.805Z,80143.75
2023-04-18T02:15:22.068Z,80136.81
2023-04-18T02:17:03.363Z,80138.72
2023-04-18T02:18:44.643Z,80135.97
2023-04-18T02:20:25.915Z,80137.63
2023-04-18T02:22:07.221Z,80138.31
2023-04-18T02:23:48.530Z,80136.41
2023-04-18T02:25:29.840Z,80129.44
2023-04-18T02:27:11.160Z,80129.78
2023-04-18T02:28:52.441Z,80132.66
2023-04-18T02:30:33.724Z,80132.78
2023-04-18T02:32:15.056Z,80132.44
2023-04-18T02:33:56.349Z,80126.09
2023-04-18T02:35:37.680Z,80134.22
2023-04-18T02:37:18.982Z,80132.97
2023-04-18T02:39:00.268Z,80125.34
2023-04-18T02:40:41.591Z,80136.13
2023-04-18T02:42:22.914Z,80130.81
2023-04-18T02:44:04.214Z,80135.69
2023-04-18T02:45:45.551Z,80135.63
2023-04-18T02:47:26.942Z,80130.31
2023-04-18T02:49:08.275Z,80136.19
2023-04-18T02:50:49.562Z,80131.38
2023-04-18T02:52:30.860Z,80128.97
2023-04-18T02:54:12.325Z,80129.78
2023-04-18T02:55:53.779Z,80134.28
2023-04-18T02:57:35.097Z,80127.88
2023-04-18T02:59:16.380Z,80127.47
2023-04-18T03:00:57.682Z,80131.72
2023-04-18T03:02:39.053Z,80124.25
2023-04-18T03:04:20.375Z,80126.06
2023-04-18T03:06:01.688Z,80126.75
2023-04-18T03:07:43.032Z,80125.13
2023-04-18T03:09:24.324Z,80128.81
2023-04-18T03:11:05.594Z,80117.59
2023-04-18T03:12:46.919Z,80119.75
2023-04-18T03:14:28.195Z,80136.63
2023-04-18T03:16:09.520Z,80128.00
2023-04-18T03:17:50.884Z,80117.88
2023-04-18T03:19:32.181Z,80132.09
2023-04-18T03:21:13.472Z,80129.84
2023-04-18T03:22:54.801Z,80131.03
2023-04-18T03:24:36.090Z,80129.03
2023-04-18T03:26:17.439Z,80127.72
2023-04-18T03:27:58.744Z,80128.69
2023-04-18T03:29:40.053Z,80123.38
2023-04-18T03:31:21.434Z,80132.66
2023-04-18T03:33:03.024Z,80125.47
2023-04-18T03:34:44.465Z,80129.13
2023-04-18T03:36:25.769Z,80128.78
2023-04-18T03:38:07.103Z,80124.38
2023-04-18T03:39:48.392Z,80139.72
2023-04-18T03:41:29.723Z,80135.00
2023-04-18T03:43:11.116Z,80130.25
2023-04-18T03:44:52.391Z,80141.63
2023-04-18T03:46:33.793Z,80133.53
2023-04-18T03:48:15.107Z,80133.75
2023-04-18T03:49:56.383Z,80125.19
2023-04-18T03:51:37.686Z,80125.13
2023-04-18T03:53:18.957Z,80126.31
2023-04-18T03:55:00.338Z,80128.88
2023-04-18T03:56:41.710Z,80139.94
2023-04-18T04:00:04.419Z,80130.31
2023-04-18T04:01:45.788Z,80126.41
2023-04-18T04:03:27.220Z,80127.31
2023-04-18T04:05:08.606Z,80126.31
2023-04-18T04:06:49.966Z,80129.75
2023-04-18T04:08:31.255Z,80131.16
2023-04-18T04:10:12.582Z,80134.88
2023-04-18T04:11:53.911Z,80135.09
2023-04-18T04:13:35.203Z,80135.88
2023-04-18T04:15:16.500Z,80126.06
2023-04-18T04:16:57.787Z,80134.34
2023-04-18T04:18:39.050Z,80124.00
2023-04-18T04:20:20.340Z,80127.16
2023-04-18T04:22:01.671Z,80128.47
2023-04-18T04:23:43.024Z,80136.63
2023-04-18T04:25:24.515Z,80135.44
2023-04-18T04:27:05.968Z,80140.25
2023-04-18T04:28:47.333Z,80142.47
2023-04-18T04:30:28.680Z,80140.28
2023-04-18T04:32:10.014Z,80148.75
2023-04-18T04:33:51.350Z,80147.72
2023-04-18T04:35:32.651Z,80150.72
2023-04-18T04:37:14.085Z,80148.22
2023-04-18T04:38:55.756Z,80153.09
2023-04-18T04:40:37.056Z,80149.63
2023-04-18T04:42:18.337Z,80161.09
2023-04-18T04:43:59.646Z,80159.97
2023-04-18T04:45:40.985Z,80157.59
2023-04-18T04:47:22.403Z,80163.91
2023-04-18T04:49:03.770Z,80160.47
2023-04-18T04:50:45.046Z,80160.56
2023-04-18T04:52:26.341Z,80169.16
2023-04-18T04:54:07.701Z,80166.53
2023-04-18T04:55:48.996Z,80160.06
2023-04-18T04:57:30.295Z,80157.09
2023-04-18T04:59:11.602Z,80164.44
2023-04-18T05:00:52.949Z,80163.94
2023-04-18T05:02:34.430Z,80161.59
2023-04-18T05:04:16.093Z,80169.03
2023-04-18T05:05:57.672Z,80160.06
2023-04-18T05:07:38.932Z,80168.94
2023-04-18T05:09:20.265Z,80166.88
2023-04-18T05:11:01.586Z,80172.66
2023-04-18T05:12:42.911Z,80170.72
2023-04-18T05:14:25.410Z,80170.75
2023-04-18T05:16:06.704Z,80167.81
2023-04-18T05:17:48.017Z,80178.41
2023-04-18T05:19:29.344Z,80172.53
2023-04-18T05:21:10.633Z,80175.31
2023-04-18T05:22:51.918Z,80170.16
2023-04-18T05:24:33.208Z,80167.88
2023-04-18T05:26:14.518Z,80171.97
2023-04-18T05:27:55.814Z,80174.06
2023-04-18T05:29:37.106Z,80177.38
2023-04-18T05:31:18.428Z,80179.28
2023-04-18T05:32:59.820Z,80172.63
2023-04-18T05:34:41.135Z,80170.78
2023-04-18T05:36:22.465Z,80175.94
2023-04-18T05:38:03.750Z,80177.75
2023-04-18T05:39:45.048Z,80165.34
2023-04-18T05:41:26.376Z,80169.53
2023-04-18T05:43:07.687Z,80178.41
2023-04-18T05:44:48.949Z,80179.84
2023-04-18T05:46:30.268Z,80181.75
2023-04-18T05:48:11.599Z,80182.66
2023-04-18T05:49:52.909Z,80177.59
2023-04-18T05:51:34.228Z,80173.91
2023-04-18T05:53:15.549Z,80180.66
2023-04-18T05:54:56.814Z,80178.72
2023-04-18T05:56:38.120Z,80183.88
2023-04-18T05:58:19.556Z,80181.03
2023-04-18T06:00:00.876Z,80178.81
2023-04-18T06:01:42.175Z,80179.84
2023-04-18T06:03:23.755Z,80184.38
2023-04-18T06:05:05.603Z,80189.88
2023-04-18T06:06:47.228Z,80181.94
2023-04-18T06:08:28.489Z,80188.94
2023-04-18T06:10:09.769Z,80182.66
2023-04-18T06:11:51.067Z,80188.50
2023-04-18T06:13:32.361Z,80181.47
2023-04-18T06:15:13.660Z,80180.41
2023-04-18T06:16:55.039Z,80186.94
2023-04-18T06:18:36.344Z,80183.63
2023-04-18T06:20:17.640Z,80186.34
2023-04-18T06:21:58.938Z,80192.44
2023-04-18T06:23:40.228Z,80192.56
2023-04-18T06:25:21.535Z,80194.47
2023-04-18T06:27:02.895Z,80186.53
2023-04-18T06:28:44.214Z,80192.03
2023-04-18T06:30:25.570Z,80193.59
2023-04-18T06:32:06.932Z,80192.72
2023-04-18T06:33:48.223Z,80194.81
2023-04-18T06:35:29.543Z,80193.13
2023-04-18T06:37:10.837Z,80197.97
2023-04-18T06:38:52.120Z,80184.63
2023-04-18T06:40:33.464Z,80190.16
2023-04-18T06:42:14.776Z,80179.94
2023-04-18T06:44:14.574Z,80182.13
2023-04-18T06:45:56.090Z,80189.91
2023-04-18T06:47:37.675Z,80189.34
2023-04-18T06:49:19.733Z,80190.63
2023-04-18T06:51:02.107Z,80191.75
2023-04-18T06:52:43.443Z,80189.16
2023-04-18T06:54:24.764Z,80185.69
2023-04-18T06:56:06.063Z,80181.78
2023-04-18T06:57:47.399Z,80190.06
2023-04-18T06:59:28.678Z,80188.38
2023-04-18T07:01:10.019Z,80190.50
2023-04-18T07:02:51.446Z,80192.94
2023-04-18T07:04:32.866Z,80187.53
2023-04-18T07:06:14.202Z,80195.53
2023-04-18T07:07:55.561Z,80193.81
2023-04-18T07:09:36.871Z,80191.03
2023-04-18T07:11:18.194Z,80198.78
2023-04-18T07:12:59.468Z,80195.00
2023-04-18T07:14:40.742Z,80192.84
2023-04-18T07:16:22.110Z,80190.72
2023-04-18T07:18:03.447Z,80192.44
2023-04-18T07:19:44.884Z,80190.06
2023-04-18T07:21:26.168Z,80188.25
2023-04-18T07:23:07.455Z,80186.53
2023-04-18T07:24:48.801Z,80189.53
2023-04-18T07:26:30.094Z,80186.19
2023-04-18T07:28:11.405Z,80183.44
2023-04-18T07:29:52.719Z,80190.22
2023-04-18T07:31:34.115Z,80186.03
2023-04-18T07:33:15.551Z,80181.22
2023-04-18T07:34:56.849Z,80192.69
2023-04-18T07:36:38.157Z,80188.63
2023-04-18T07:38:19.469Z,80183.47
2023-04-18T07:40:00.858Z,80182.97
2023-04-18T07:41:42.207Z,80188.31
2023-04-18T07:43:23.631Z,80179.44
2023-04-18T07:45:04.923Z,80180.25
2023-04-18T07:46:46.404Z,80175.56
2023-04-18T07:48:27.930Z,80186.94
2023-04-18T07:50:09.329Z,80178.09
2023-04-18T07:51:50.682Z,80174.63
2023-04-18T07:53:32.052Z,80169.69
2023-04-18T07:55:13.389Z,80175.94
2023-04-18T07:56:54.683Z,80177.19
2023-04-18T07:58:35.985Z,80179.91
2023-04-18T08:00:17.291Z,80180.66
2023-04-18T08:01:58.670Z,80179.16
2023-04-18T08:03:40.167Z,80169.59
2023-04-18T08:05:21.592Z,80172.16
2023-04-18T08:07:02.947Z,80163.00
2023-04-18T08:08:44.241Z,80167.41
2023-04-18T08:10:25.537Z,80166.13
2023-04-18T08:12:06.866Z,80166.28
2023-04-18T08:13:48.239Z,80166.72
2023-04-18T08:15:29.562Z,80165.88
2023-04-18T08:17:10.879Z,80155.66
2023-04-18T08:18:52.171Z,80162.03
2023-04-18T08:20:33.492Z,80168.09
2023-04-18T08:22:14.831Z,80168.56
2023-04-18T08:23:56.113Z,80170.19
2023-04-18T08:25:37.401Z,80166.50
2023-04-18T08:27:18.735Z,80162.66
2023-04-18T08:29:00.060Z,80169.09
2023-04-18T08:30:41.337Z,80172.38
2023-04-18T08:32:22.757Z,80167.09
2023-04-18T08:34:05.077Z,80171.06
2023-04-18T08:35:46.633Z,80166.56
2023-04-18T08:37:28.027Z,80172.47
2023-04-18T08:39:09.398Z,80168.25
2023-04-18T08:40:50.669Z,80168.44
2023-04-18T08:42:31.976Z,80165.63
2023-04-18T08:44:13.491Z,80165.38
2023-04-18T08:45:55.001Z,80171.63
2023-04-18T08:47:36.334Z,80171.75
2023-04-18T08:49:17.681Z,80172.13
2023-04-18T08:50:59.013Z,80175.22
2023-04-18T08:52:40.351Z,80174.41
2023-04-18T08:54:21.652Z,80176.81
2023-04-18T08:56:02.985Z,80170.25
2023-04-18T08:57:44.312Z,80178.66
2023-04-18T08:59:25.572Z,80174.66
2023-04-18T09:01:06.990Z,80177.81
2023-04-18T09:02:48.404Z,80174.34
2023-04-18T09:04:29.823Z,80177.88
2023-04-18T09:06:11.206Z,80182.47
2023-04-18T09:07:52.562Z,80180.03
2023-04-18T09:09:33.857Z,80186.00
2023-04-18T09:11:15.165Z,80182.25
2023-04-18T09:12:56.469Z,80182.81
2023-04-18T09:14:37.777Z,80189.25
2023-04-18T09:16:19.122Z,80179.19
2023-04-18T09:18:00.523Z,80188.69
2023-04-18T09:19:41.813Z,80186.00
2023-04-18T09:21:23.192Z,80180.84
2023-04-18T09:23:04.478Z,80183.53
2023-04-18T09:24:45.891Z,80185.28
2023-04-18T09:26:27.216Z,80177.94
2023-04-18T09:28:08.547Z,80185.66
2023-04-18T09:29:49.834Z,80186.25
2023-04-18T09:31:31.219Z,80186.38
2023-04-18T09:33:12.585Z,80191.41
2023-04-18T09:34:53.903Z,80195.91
2023-04-18T09:36:35.267Z,80205.63
2023-04-18T09:38:16.630Z,80214.19
2023-04-18T09:39:58.008Z,80219.16
2023-04-18T09:41:39.348Z,80208.97
2023-04-18T09:43:20.648Z,80211.69
2023-04-18T09:45:02.002Z,80217.41
2023-04-18T09:46:46.535Z,80203.44
2023-04-18T09:48:28.634Z,80212.09
2023-04-18T09:50:09.913Z,80215.41
2023-04-18T09:51:51.209Z,80218.81
2023-04-18T09:53:32.600Z,80212.84
2023-04-18T09:55:13.952Z,80217.34
2023-04-18T09:56:55.357Z,80209.56
2023-04-18T09:58:36.703Z,80215.56
2023-04-18T10:00:18.007Z,80213.13
2023-04-18T10:01:59.438Z,80205.72
2023-04-18T10:03:41.022Z,80205.16
2023-04-18T10:05:22.366Z,80202.94
2023-04-18T10:07:03.721Z,80211.13
2023-04-18T10:08:45.023Z,80206.03
2023-04-18T10:10:26.350Z,80205.25
2023-04-18T10:12:07.697Z,80210.16
2023-04-18T10:13:49.039Z,80216.97
2023-04-18T10:15:30.823Z,80213.22
2023-04-18T10:17:12.397Z,80204.84
2023-04-18T10:18:53.678Z,80208.75
2023-04-18T10:20:35.337Z,80210.81
2023-04-18T10:22:16.978Z,80203.63
2023-04-18T10:23:58.293Z,80200.91
2023-04-18T10:25:39.590Z,80201.03
2023-04-18T10:27:20.947Z,80203.53
2023-04-18T10:29:02.235Z,80202.66
2023-04-18T10:30:43.556Z,80201.56
2023-04-18T10:32:24.947Z,80201.56
2023-04-18T10:34:06.404Z,80205.72
2023-04-18T10:35:47.758Z,80202.06
2023-04-18T10:37:29.116Z,80196.59
2023-04-18T10:39:10.400Z,80204.22
2023-04-18T10:40:51.739Z,80199.25
2023-04-18T10:42:33.070Z,80198.78
2023-04-18T10:44:14.624Z,80191.44
2023-04-18T10:45:56.207Z,80198.44
2023-04-18T10:47:37.701Z,80192.22
2023-04-18T10:49:19.144Z,80188.22
2023-04-18T10:51:00.432Z,80201.25
2023-04-18T10:52:41.761Z,80197.53
2023-04-18T10:54:23.049Z,80193.75
2023-04-18T10:56:04.457Z,80195.00
2023-04-18T10:57:45.779Z,80185.28
2023-04-18T10:59:27.081Z,80195.16
2023-04-18T11:01:08.399Z,80203.31
2023-04-18T11:02:49.829Z,80197.03
2023-04-18T11:04:31.455Z,80194.97
2023-04-18T11:06:12.872Z,80194.50
2023-04-18T11:07:54.465Z,80194.38
2023-04-18T11:09:35.931Z,80194.06
2023-04-18T11:11:17.349Z,80192.44
2023-04-18T11:12:58.660Z,80188.00
2023-04-18T11:14:39.937Z,80197.94
2023-04-18T11:16:21.299Z,80193.25
2023-04-18T11:18:02.677Z,80190.56
2023-04-18T11:19:43.993Z,80193.72
2023-04-18T11:21:25.318Z,80193.72
2023-04-18T11:23:06.607Z,80203.81
2023-04-18T11:24:47.896Z,80196.19
2023-04-18T11:26:29.240Z,80186.81
2023-04-18T11:28:10.546Z,80192.41
2023-04-18T11:29:51.836Z,80191.00
2023-04-18T11:31:33.298Z,80189.47
2023-04-18T11:33:14.689Z,80188.97
2023-04-18T11:34:55.993Z,80195.63
2023-04-18T11:36:37.298Z,80200.94
2023-04-18T11:38:18.642Z,80185.31
2023-04-18T11:39:59.943Z,80199.53
2023-04-18T11:41:41.265Z,80195.69
2023-04-18T11:43:22.724Z,80183.06
2023-04-18T11:45:04.070Z,80193.59
2023-04-18T11:46:45.354Z,80193.72
2023-04-18T11:48:26.644Z,80198.31
2023-04-18T11:50:08.057Z,80198.59
2023-04-18T11:51:49.385Z,80191.50
2023-04-18T11:53:30.691Z,80196.44
2023-04-18T11:55:11.991Z,80201.81
2023-04-18T11:56:53.265Z,80202.59
2023-04-18T11:58:34.572Z,80191.38
2023-04-18T12:00:15.930Z,80207.38
2023-04-18T12:01:58.858Z,80194.53
2023-04-18T12:03:40.495Z,80193.63
2023-04-18T12:05:22.055Z,80194.84
2023-04-18T12:07:03.612Z,80197.19
2023-04-18T12:08:44.900Z,80200.16
2023-04-18T12:10:26.193Z,80198.28
2023-04-18T12:12:07.489Z,80196.28
2023-04-18T12:13:48.792Z,80197.28
2023-04-18T12:15:30.074Z,80196.03
2023-04-18T12:17:11.355Z,80191.63
2023-04-18T12:18:52.652Z,80209.22
2023-04-18T12:20:33.943Z,80207.00
2023-04-18T12:22:15.241Z,80200.09
2023-04-18T12:23:56.527Z,80202.19
2023-04-18T12:25:37.793Z,80201.91
2023-04-18T12:27:19.099Z,80207.41
2023-04-18T12:29:00.372Z,80204.00
2023-04-18T12:30:41.653Z,80202.06
2023-04-18T12:32:22.921Z,80203.84
2023-04-18T12:34:04.225Z,80200.47
2023-04-18T12:35:46.402Z,80195.88
2023-04-18T12:37:28.595Z,80196.03
2023-04-18T12:39:09.887Z,80205.84
2023-04-18T12:40:51.186Z,80210.25
2023-04-18T12:42:32.479Z,80212.91
2023-04-18T12:44:13.968Z,80209.94
2023-04-18T12:45:55.413Z,80198.66
2023-04-18T12:47:36.723Z,80205.56
2023-04-18T12:49:18.047Z,80213.03
2023-04-18T12:50:59.312Z,80213.56
2023-04-18T12:52:40.714Z,80209.84
2023-04-18T12:54:22.055Z,80205.28
2023-04-18T12:56:03.323Z,80214.19
2023-04-18T12:57:44.622Z,80222.25
2023-04-18T12:59:25.909Z,80214.03
2023-04-18T13:01:07.233Z,80218.41
2023-04-18T13:02:48.719Z,80212.94
2023-04-18T13:04:30.256Z,80222.16
2023-04-18T13:06:11.742Z,80221.22
2023-04-18T13:07:58.635Z,80216.63
2023-04-18T13:09:43.200Z,80220.88
2023-04-18T13:11:24.452Z,80216.41
2023-04-18T13:13:05.754Z,80220.25
2023-04-18T13:14:47.127Z,80233.19
2023-04-18T13:16:28.428Z,80227.25
2023-04-18T13:18:09.709Z,80221.28
2023-04-18T13:19:51.030Z,80219.38
2023-04-18T13:21:32.299Z,80222.41
2023-04-18T13:23:13.549Z,80223.31
2023-04-18T13:24:54.906Z,80225.06
2023-04-18T13:26:36.228Z,80233.63
2023-04-18T13:28:17.521Z,80235.66
2023-04-18T13:29:58.813Z,80240.59
2023-04-18T13:31:40.171Z,80236.16
2023-04-18T13:33:21.483Z,80244.06
2023-04-18T13:35:04.316Z,80247.22
2023-04-18T13:36:45.619Z,80230.72
2023-04-18T13:38:27.204Z,80228.03
2023-04-18T13:40:08.718Z,80232.94
2023-04-18T13:41:50.071Z,80238.13
2023-04-18T13:43:31.472Z,80236.75
2023-04-18T13:45:12.879Z,80240.22
2023-04-18T13:46:54.168Z,80242.25
2023-04-18T13:48:35.468Z,80231.16
2023-04-18T13:50:16.822Z,80235.94
2023-04-18T13:51:58.099Z,80225.31
2023-04-18T13:53:39.433Z,80225.78
2023-04-18T13:55:20.751Z,80227.16
2023-04-18T13:57:02.041Z,80222.78
2023-04-18T13:58:43.344Z,80223.28
2023-04-18T14:00:24.682Z,80225.00
2023-04-18T14:02:06.016Z,80222.00
2023-04-18T14:03:47.604Z,80220.84
2023-04-18T14:05:29.101Z,80228.50
2023-04-18T14:07:10.417Z,80226.63
2023-04-18T14:08:51.689Z,80221.97
2023-04-18T14:10:32.994Z,80229.94
2023-04-18T14:12:14.289Z,80224.31
2023-04-18T14:13:55.560Z,80223.69
2023-04-18T14:15:36.863Z,80224.25
2023-04-18T14:17:18.218Z,80229.78
2023-04-18T14:18:59.497Z,80232.72
2023-04-18T14:20:40.781Z,80225.38
2023-04-18T14:22:22.090Z,80231.03
2023-04-18T14:24:03.356Z,80232.22
2023-04-18T14:25:44.632Z,80228.94
2023-04-18T14:27:25.920Z,80226.34
2023-04-18T14:29:07.213Z,80226.03
2023-04-18T14:30:48.501Z,80228.94
2023-04-18T14:32:29.872Z,80232.22
2023-04-18T14:34:11.189Z,80232.44
2023-04-18T14:35:52.495Z,80231.97
2023-04-18T14:37:33.843Z,80233.19
2023-04-18T14:39:15.376Z,80235.06
2023-04-18T14:40:56.728Z,80237.13
2023-04-18T14:42:38.022Z,80232.19
2023-04-18T14:44:19.347Z,80226.00
2023-04-18T14:46:00.761Z,80231.28
2023-04-18T14:47:42.182Z,80225.47
2023-04-18T14:49:23.565Z,80225.09
2023-04-18T14:51:04.880Z,80229.84
2023-04-18T14:52:46.177Z,80227.84
2023-04-18T14:54:27.516Z,80236.44
2023-04-18T14:56:08.814Z,80235.44
2023-04-18T14:57:50.224Z,80236.94
2023-04-18T14:59:31.563Z,80234.44
2023-04-18T15:01:12.838Z,80242.88
2023-04-18T15:02:54.321Z,80239.56
2023-04-18T15:04:36.058Z,80239.00
2023-04-18T15:06:17.395Z,80243.16
2023-04-18T15:07:58.740Z,80245.81
2023-04-18T15:09:40.099Z,80235.72
2023-04-18T15:11:21.454Z,80239.00
2023-04-18T15:13:02.737Z,80237.41
2023-04-18T15:14:44.033Z,80225.97
2023-04-18T15:16:25.424Z,80230.19
2023-04-18T15:18:06.758Z,80226.94
2023-04-18T15:19:48.061Z,80231.78
2023-04-18T15:21:29.360Z,80225.00
2023-04-18T15:23:10.692Z,80232.59
2023-04-18T15:24:52.079Z,80241.31
2023-04-18T15:26:33.493Z,80233.47
2023-04-18T15:28:14.851Z,80236.19
2023-04-18T15:29:56.843Z,80235.31
2023-04-18T15:31:39.268Z,80238.06
2023-04-18T15:33:20.861Z,80238.41
2023-04-18T15:35:02.382Z,80241.94
2023-04-18T15:36:43.810Z,80244.19
2023-04-18T15:38:25.119Z,80236.44
2023-04-18T15:40:06.585Z,80243.91
2023-04-18T15:41:48.530Z,80238.19
2023-04-18T15:43:30.007Z,80243.50
2023-04-18T15:45:11.290Z,80246.59
2023-04-18T15:46:52.784Z,80247.28
2023-04-18T15:48:34.335Z,80241.94
2023-04-18T15:50:15.693Z,80248.66
2023-04-18T15:51:56.996Z,80239.00
2023-04-18T15:53:38.285Z,80232.72
2023-04-18T15:55:19.571Z,80239.88
2023-04-18T15:57:00.845Z,80245.31
2023-04-18T15:58:42.714Z,80234.84
2023-04-18T16:00:24.413Z,80240.00
2023-04-18T16:02:05.819Z,80241.91
2023-04-18T16:03:47.245Z,80244.81
2023-04-18T16:05:28.607Z,80240.66
2023-04-18T16:07:09.882Z,80244.97
2023-04-18T16:08:51.159Z,80254.00
2023-04-18T16:10:32.467Z,80241.25
2023-04-18T16:12:13.761Z,80251.06
2023-04-18T16:13:55.031Z,80250.63
2023-04-18T16:15:36.369Z,80244.13
2023-04-18T16:17:17.699Z,80243.84
2023-04-18T16:18:58.991Z,80244.09
2023-04-18T16:20:40.363Z,80256.38
2023-04-18T16:22:21.679Z,80244.69
2023-04-18T16:24:02.982Z,80251.25
2023-04-18T16:25:44.306Z,80246.47
2023-04-18T16:27:25.642Z,80248.25
2023-04-18T16:29:07.022Z,80253.13
2023-04-18T16:30:48.388Z,80254.72
2023-04-18T16:32:29.796Z,80261.69
2023-04-18T16:34:11.109Z,80250.47
2023-04-18T16:35:52.658Z,80258.13
2023-04-18T16:37:34.152Z,80252.41
2023-04-18T16:39:15.457Z,80254.75
2023-04-18T16:40:56.768Z,80260.91
2023-04-18T16:42:38.074Z,80261.06
2023-04-18T16:44:19.407Z,80262.84
2023-04-18T16:46:00.763Z,80260.84
2023-04-18T16:47:42.128Z,80267.75
2023-04-18T16:49:23.519Z,80267.66
2023-04-18T16:51:04.801Z,80265.28
2023-04-18T16:52:46.073Z,80269.13
2023-04-18T16:54:27.351Z,80264.56
2023-04-18T16:56:08.633Z,80267.97
2023-04-18T16:57:49.926Z,80271.03
2023-04-18T16:59:31.421Z,80272.28
2023-04-18T17:01:12.710Z,80279.13
2023-04-18T17:02:54.045Z,80273.38
2023-04-18T17:04:35.496Z,80279.88
2023-04-18T17:06:16.835Z,80278.81
2023-04-18T17:07:58.105Z,80284.88
2023-04-18T17:09:39.413Z,80286.66
2023-04-18T17:11:20.767Z,80280.25
2023-04-18T17:13:02.085Z,80281.47
2023-04-18T17:14:43.379Z,80285.88
2023-04-18T17:16:24.703Z,80290.16
2023-04-18T17:18:06.062Z,80283.88
2023-04-18T17:19:47.416Z,80278.13
2023-04-18T17:21:28.729Z,80284.00
2023-04-18T17:23:10.004Z,80293.53
2023-04-18T17:24:51.295Z,80282.91
2023-04-18T17:26:32.594Z,80289.81
2023-04-18T17:28:13.924Z,80283.94
2023-04-18T17:29:55.232Z,80283.06
2023-04-18T17:31:36.573Z,80286.94
2023-04-18T17:33:17.905Z,80293.31
2023-04-18T17:34:59.191Z,80296.22
2023-04-18T17:36:40.479Z,80290.88
2023-04-18T17:38:21.741Z,80295.91
2023-04-18T17:40:03.052Z,80299.41
2023-04-18T17:41:44.347Z,80297.00
2023-04-18T17:43:25.620Z,80301.84
2023-04-18T17:45:06.925Z,80295.41
2023-04-18T17:46:50.002Z,80298.25
2023-04-18T17:48:31.803Z,80304.91
2023-04-18T17:50:13.133Z,80295.78
2023-04-18T17:51:54.427Z,80304.81
2023-04-18T17:53:35.739Z,80307.50
2023-04-18T17:55:17.023Z,80308.00
2023-04-18T17:56:58.308Z,80315.81
2023-04-18T17:58:39.610Z,80312.66
2023-04-18T18:00:20.892Z,80319.72
2023-04-18T18:02:02.210Z,80319.72
2023-04-18T18:03:43.848Z,80322.22
2023-04-18T18:05:25.299Z,80332.38
2023-04-18T18:07:06.890Z,80322.25
2023-04-18T18:08:48.172Z,80328.25
2023-04-18T18:10:29.492Z,80324.16
2023-04-18T18:12:10.823Z,80334.00
2023-04-18T18:13:52.116Z,80331.16
2023-04-18T18:15:33.397Z,80335.72
2023-04-18T18:17:14.691Z,80337.28
2023-04-18T18:18:55.996Z,80334.88
2023-04-18T18:20:37.276Z,80334.00
2023-04-18T18:22:18.590Z,80337.59
2023-04-18T18:23:59.913Z,80334.88
2023-04-18T18:25:41.217Z,80345.97
2023-04-18T18:27:22.490Z,80342.13
2023-04-18T18:29:03.794Z,80345.50
2023-04-18T18:30:45.072Z,80342.94
2023-04-18T18:32:26.398Z,80346.31
2023-04-18T18:34:07.765Z,80349.34
2023-04-18T18:35:49.093Z,80350.94
2023-04-18T18:37:30.404Z,80348.72
2023-04-18T18:39:11.795Z,80350.75
2023-04-18T18:40:53.211Z,80352.09
2023-04-18T18:42:34.509Z,80361.63
2023-04-18T18:44:15.804Z,80363.13
2023-04-18T18:45:57.138Z,80362.72
2023-04-18T18:47:39.990Z,80363.00
2023-04-18T18:49:21.698Z,80363.25
2023-04-18T18:51:02.989Z,80370.97
2023-04-18T18:52:44.941Z,80364.72
2023-04-18T18:54:26.463Z,80371.66
2023-04-18T18:56:07.750Z,80369.34
2023-04-18T18:57:49.028Z,80369.56
2023-04-18T18:59:30.415Z,80370.97
2023-04-18T19:01:11.719Z,80380.16
2023-04-18T19:02:53.117Z,80377.09
2023-04-18T19:04:34.573Z,80369.16
2023-04-18T19:06:15.889Z,80377.66
2023-04-18T19:07:57.219Z,80382.59
2023-04-18T19:09:38.557Z,80383.19
2023-04-18T19:11:19.815Z,80386.19
2023-04-18T19:13:01.084Z,80383.50
2023-04-18T19:14:42.566Z,80387.34
2023-04-18T19:16:23.978Z,80395.31
2023-04-18T19:18:05.396Z,80393.44
2023-04-18T19:19:46.850Z,80394.72
2023-04-18T19:21:28.222Z,80401.19
2023-04-18T19:23:09.518Z,80394.06
2023-04-18T19:24:50.812Z,80398.38
2023-04-18T19:26:32.098Z,80403.59
2023-04-18T19:28:13.653Z,80406.06
2023-04-18T19:29:55.527Z,80401.66
2023-04-18T19:31:36.904Z,80406.06
2023-04-18T19:33:18.209Z,80405.31
2023-04-18T19:34:59.562Z,80404.44
2023-04-18T19:36:40.905Z,80411.22
2023-04-18T19:38:23.731Z,80403.19
2023-04-18T19:40:05.031Z,80404.78
2023-04-18T19:41:46.369Z,80409.22
2023-04-18T19:43:27.768Z,80410.59
2023-04-18T19:45:09.052Z,80407.44
2023-04-18T19:46:50.378Z,80406.97
2023-04-18T19:48:31.813Z,80410.09
2023-04-18T19:50:13.296Z,80410.88
2023-04-18T19:51:54.752Z,80414.25